sensor_id;sensor_type;location;lat;lon;timestamp;pressure;altitude;pressure_sealevel;temperature;humidity
71903;BME280;59778;50.310;18.780;2022-07-18T00:01:54;99778.16;;;12.17;75.20
71903;BME280;59778;50.310;18.780;2022-07-18T00:17:15;99780.28;;;12.07;75.00
71903;BME280;59778;50.310;18.780;2022-07-18T00:32:36;99765.63;;;11.85;75.93
71903;BME280;59778;50.310;18.780;2022-07-18T00:47:57;99762.25;;;11.67;76.95
71903;BME280;59778;50.310;18.780;2022-07-18T01:03:18;99770.06;;;11.70;76.19
71903;BME280;59778;50.310;18.780;2022-07-18T01:18:44;99763.16;;;11.59;76.16
71903;BME280;59778;50.310;18.780;2022-07-18T01:34:05;99769.03;;;11.40;76.96
71903;BME280;59778;50.310;18.780;2022-07-18T01:49:27;99765.72;;;11.14;77.89
71903;BME280;59778;50.310;18.780;2022-07-18T02:04:50;99764.53;;;11.08;78.10
71903;BME280;59778;50.310;18.780;2022-07-18T02:20:21;99775.28;;;10.94;78.74
71903;BME280;59778;50.310;18.780;2022-07-18T02:35:43;99776.28;;;11.01;77.56
71903;BME280;59778;50.310;18.780;2022-07-18T02:51:04;99772.88;;;10.91;77.74
71903;BME280;59778;50.310;18.780;2022-07-18T03:06:25;99775.59;;;10.91;77.90
71903;BME280;59778;50.310;18.780;2022-07-18T03:21:47;99784.09;;;10.96;77.94
71903;BME280;59778;50.310;18.780;2022-07-18T03:37:08;99800.72;;;11.09;78.52
71903;BME280;59778;50.310;18.780;2022-07-18T03:52:29;99794.75;;;11.21;79.25
71903;BME280;59778;50.310;18.780;2022-07-18T04:07:50;99819.28;;;11.60;78.64
71903;BME280;59778;50.310;18.780;2022-07-18T04:23:11;99825.63;;;11.92;78.50
71903;BME280;59778;50.310;18.780;2022-07-18T04:38:32;99825.34;;;12.09;78.58
71903;BME280;59778;50.310;18.780;2022-07-18T04:53:57;99812.00;;;12.22;77.84
71903;BME280;59778;50.310;18.780;2022-07-18T05:09:18;99809.75;;;12.71;78.21
71903;BME280;59778;50.310;18.780;2022-07-18T05:24:39;99797.84;;;13.39;76.50
71903;BME280;59778;50.310;18.780;2022-07-18T05:40:05;99809.38;;;14.00;72.54
71903;BME280;59778;50.310;18.780;2022-07-18T05:55:27;99794.53;;;14.66;71.70
71903;BME280;59778;50.310;18.780;2022-07-18T06:10:48;99800.41;;;15.40;67.32
71903;BME280;59778;50.310;18.780;2022-07-18T06:26:09;99818.78;;;16.34;61.68
71903;BME280;59778;50.310;18.780;2022-07-18T06:41:31;99810.25;;;17.03;62.18
71903;BME280;59778;50.310;18.780;2022-07-18T06:56:52;99805.00;;;18.05;59.49
71903;BME280;59778;50.310;18.780;2022-07-18T07:12:13;99797.22;;;19.03;58.18
71903;BME280;59778;50.310;18.780;2022-07-18T07:27:34;99795.63;;;19.63;52.18
71903;BME280;59778;50.310;18.780;2022-07-18T07:43:06;99787.91;;;20.38;49.50
71903;BME280;59778;50.310;18.780;2022-07-18T07:58:27;99770.41;;;20.74;46.17
71903;BME280;59778;50.310;18.780;2022-07-18T08:13:48;99768.22;;;21.17;41.28
71903;BME280;59778;50.310;18.780;2022-07-18T08:29:09;99767.84;;;21.60;42.14
71903;BME280;59778;50.310;18.780;2022-07-18T08:44:31;99765.84;;;22.07;39.40
71903;BME280;59778;50.310;18.780;2022-07-18T08:59:53;99769.09;;;22.32;38.31
71903;BME280;59778;50.310;18.780;2022-07-18T09:15:14;99750.59;;;22.78;36.48
71903;BME280;59778;50.310;18.780;2022-07-18T09:30:36;99752.44;;;22.89;36.01
71903;BME280;59778;50.310;18.780;2022-07-18T09:45:57;99736.41;;;23.08;36.44
71903;BME280;59778;50.310;18.780;2022-07-18T10:01:19;99742.75;;;23.41;36.57
71903;BME280;59778;50.310;18.780;2022-07-18T10:16:41;99740.75;;;23.75;32.73
71903;BME280;59778;50.310;18.780;2022-07-18T10:32:04;99730.31;;;23.82;31.45
71903;BME280;59778;50.310;18.780;2022-07-18T10:47:28;99721.34;;;24.19;32.90
71903;BME280;59778;50.310;18.780;2022-07-18T11:03:16;99702.75;;;24.19;31.42
71903;BME280;59778;50.310;18.780;2022-07-18T11:34:00;99665.97;;;25.87;30.76
71903;BME280;59778;50.310;18.780;2022-07-18T11:49:22;99661.56;;;26.16;32.32
71903;BME280;59778;50.310;18.780;2022-07-18T12:04:43;99647.44;;;26.48;32.46
71903;BME280;59778;50.310;18.780;2022-07-18T12:20:23;99639.88;;;27.19;32.94
71903;BME280;59778;50.310;18.780;2022-07-18T12:35:44;99621.16;;;27.40;30.21
71903;BME280;59778;50.310;18.780;2022-07-18T12:51:07;99609.47;;;27.97;28.79
71903;BME280;59778;50.310;18.780;2022-07-18T13:06:29;99600.09;;;28.22;26.54
71903;BME280;59778;50.310;18.780;2022-07-18T13:21:50;99581.88;;;28.92;25.92
71903;BME280;59778;50.310;18.780;2022-07-18T13:37:11;99567.69;;;29.12;27.58
71903;BME280;59778;50.310;18.780;2022-07-18T13:52:32;99559.81;;;29.62;25.53
71903;BME280;59778;50.310;18.780;2022-07-18T14:07:53;99547.47;;;31.02;25.50
71903;BME280;59778;50.310;18.780;2022-07-18T14:23:15;99535.41;;;30.56;24.81
71903;BME280;59778;50.310;18.780;2022-07-18T14:38:36;99531.41;;;30.62;24.86
71903;BME280;59778;50.310;18.780;2022-07-18T14:53:58;99521.84;;;30.90;27.01
71903;BME280;59778;50.310;18.780;2022-07-18T15:09:20;99505.19;;;30.66;24.85
71903;BME280;59778;50.310;18.780;2022-07-18T15:24:41;99490.09;;;31.36;23.32
71903;BME280;59778;50.310;18.780;2022-07-18T15:40:02;99494.09;;;30.29;27.44
71903;BME280;59778;50.310;18.780;2022-07-18T15:55:23;99478.00;;;29.83;25.38
71903;BME280;59778;50.310;18.780;2022-07-18T16:10:44;99465.09;;;28.26;27.58
71903;BME280;59778;50.310;18.780;2022-07-18T16:26:05;99457.38;;;27.30;29.42
71903;BME280;59778;50.310;18.780;2022-07-18T16:41:27;99449.03;;;26.61;29.13
71903;BME280;59778;50.310;18.780;2022-07-18T16:56:49;99441.56;;;26.31;31.18
71903;BME280;59778;50.310;18.780;2022-07-18T17:12:10;99433.50;;;25.89;30.10
71903;BME280;59778;50.310;18.780;2022-07-18T17:27:33;99422.63;;;25.47;39.72
71903;BME280;59778;50.310;18.780;2022-07-18T17:42:55;99425.53;;;24.90;39.57
71903;BME280;59778;50.310;18.780;2022-07-18T17:58:16;99429.88;;;24.24;47.75
71903;BME280;59778;50.310;18.780;2022-07-18T18:13:37;99422.78;;;23.69;50.09
71903;BME280;59778;50.310;18.780;2022-07-18T18:28:59;99437.91;;;22.81;50.66
71903;BME280;59778;50.310;18.780;2022-07-18T18:44:20;99435.28;;;22.15;52.81
71903;BME280;59778;50.310;18.780;2022-07-18T18:59:42;99444.38;;;21.32;55.08
71903;BME280;59778;50.310;18.780;2022-07-18T19:15:04;99441.13;;;20.55;57.41
71903;BME280;59778;50.310;18.780;2022-07-18T19:30:25;99456.28;;;19.94;58.73
71903;BME280;59778;50.310;18.780;2022-07-18T19:45:46;99463.28;;;19.25;63.15
71903;BME280;59778;50.310;18.780;2022-07-18T20:01:08;99453.72;;;18.98;64.63
71903;BME280;59778;50.310;18.780;2022-07-18T20:16:29;99478.97;;;18.41;67.65
71903;BME280;59778;50.310;18.780;2022-07-18T20:31:51;99466.50;;;18.20;68.39
71903;BME280;59778;50.310;18.780;2022-07-18T20:47:13;99465.09;;;17.86;69.04
71903;BME280;59778;50.310;18.780;2022-07-18T21:02:34;99468.31;;;17.52;70.40
71903;BME280;59778;50.310;18.780;2022-07-18T21:17:55;99457.53;;;17.25;69.71
71903;BME280;59778;50.310;18.780;2022-07-18T21:33:16;99451.53;;;17.10;69.94
71903;BME280;59778;50.310;18.780;2022-07-18T21:48:39;99452.44;;;16.91;69.98
71903;BME280;59778;50.310;18.780;2022-07-18T22:04:00;99449.00;;;16.64;70.82
71903;BME280;59778;50.310;18.780;2022-07-18T22:19:21;99448.19;;;16.44;71.11
71903;BME280;59778;50.310;18.780;2022-07-18T22:34:43;99434.31;;;16.32;71.02
71903;BME280;59778;50.310;18.780;2022-07-18T22:50:05;99444.09;;;16.15;71.66
71903;BME280;59778;50.310;18.780;2022-07-18T23:05:26;99442.81;;;16.18;73.71
71903;BME280;59778;50.310;18.780;2022-07-18T23:20:47;99425.63;;;16.48;73.66
71903;BME280;59778;50.310;18.780;2022-07-18T23:36:08;99424.31;;;16.64;73.53
71903;BME280;59778;50.310;18.780;2022-07-18T23:51:30;99423.47;;;16.70;71.11
